Latest Coastal Weather Observations for Cape Otway

IDT60701

Issued at 6:15 am EST Sunday 31 August 2014 (issued every 10 minutes, with the page automatically refreshed every 10 minutes)

About coastal observations | Map of coastal stations | Coastal observations for TAS | Marine services | Other Formats
Station Details ID: 090015 Name: CAPE OTWAY LIGHTHOUSE Lat: -38.86 Lon: 143.51 Height: 82.0 m
Data from the previous 72 hours. | See also: Recent months at Cape Otway
Date/Time
EST
Temp

°C
Wind Pressure Rain
since 9am
mm
Weather Cloud Vis
km
Sea
Height
m
Swell
Dir
 
Speed
knots
Gust
knots
hPa Trend Height
m
Period
s
Dir
31/06:00am 14.5 - 16 23 1016.2 - 0.0 - - - - - - -
31/05:30am 14.6 - 17 24 1016.1 - 0.0 - - - - - - -
31/05:00am 14.6 - 16 21 1016.4 - 0.0 - - - - - - -
31/04:30am 14.7 - 16 23 1016.3 - 0.0 - - - - - - -
31/04:00am 14.8 - 14 19 1016.6 - 0.0 - - - - - - -
31/03:30am 15.0 - 14 20 1016.8 - 0.0 - - - - - - -
31/03:00am 14.9 - 13 18 1017.0 - 0.0 - - - - - - -
31/02:30am 15.0 - 12 17 1017.4 - 0.0 - - - - - - -
31/02:00am 15.1 - 14 19 1017.7 - 0.0 - - - - - - -
31/01:30am 14.8 - 13 18 1017.9 - 0.0 - - - - - - -
31/01:00am 14.8 - 15 18 1018.2 - 0.0 - - - - - - -
31/12:30am 14.7 - 14 17 1018.4 - 0.0 - - - - - - -
31/12:00am 14.6 - 13 17 1018.8 - 0.0 - - - - - - -
 
Date/Time
EST
Temp

°C
Wind Pressure Rain
since 9am
mm
Weather Cloud Vis
km
Sea
Height
m
Swell
Dir
 
Speed
knots
Gust
knots
hPa Trend Height
m
Period
s
Dir
30/11:30pm 14.6 - 12 16 1019.0 - 0.0 - - - - - - -
30/11:00pm 14.5 - 12 15 1019.3 - 0.0 - - - - - - -
30/10:30pm 14.0 - 10 13 1019.6 - 0.0 - - - - - - -
30/10:00pm 12.4 - 7 9 1020.0 - 0.0 - - - - - - -
30/09:30pm 10.6 - 1 4 1020.4 - 0.0 - - - - - - -
30/09:00pm 10.9 - 2 4 1020.4 - 0.0 - - - - - - -
30/08:30pm 11.9 - 4 5 1020.7 - 0.0 - - - - - - -
30/08:00pm 12.9 - 6 7 1020.8 - 0.0 - - - - - - -
30/07:30pm 13.1 - 7 8 1020.8 - 0.0 - - - - - - -
30/07:00pm 12.7 - 8 9 1020.8 - 0.0 - - - - - - -
30/06:30pm 12.9 - 7 10 1020.7 - 0.0 - - - - - - -
30/06:00pm 13.0 - 8 10 1020.7 - 0.0 - - - - - - -
30/05:30pm 13.6 - 6 8 1020.7 - 0.0 - - - - - - -
30/05:00pm 14.4 - 6 9 1020.9 - 0.0 - - - - - - -
30/04:30pm 14.3 - 6 9 1021.0 - 0.0 - - - - - - -
30/04:00pm 14.0 - 6 8 1021.0 - 0.0 - - - - - - -
30/03:30pm 14.2 - 5 7 1021.1 - 0.0 - - - - - - -
30/03:00pm 14.2 - 6 8 1021.3 - 0.0 - - - - - - -
30/02:30pm 13.8 - 7 9 1021.6 - 0.0 - - - - - - -
30/02:00pm 13.6 - 6 9 1021.9 - 0.0 - - - - - - -
30/01:30pm 14.0 - 5 8 1022.2 - 0.0 - - - - - - -
30/01:00pm 13.5 - 7 9 1022.4 - 0.0 - - - - - - -
30/12:30pm 13.4 - 7 11 1022.8 - 0.0 - - - - - - -
30/12:00pm 12.8 - 7 13 1023.2 - 0.0 - - - - - - -
30/11:30am 13.4 - 7 12 1023.6 - 0.0 - - - - - - -
30/11:00am 12.8 - 7 11 1024.0 - 0.0 - - - - - - -
30/10:30am 12.9 - 7 12 1024.2 - 0.0 - - - - - - -
30/10:00am 12.6 - 8 10 1024.5 - 0.0 - - - - - - -
30/09:30am 13.0 - 9 13 1025.0 - 0.0 - - - - - - -
30/09:00am 12.7 - 8 13 1025.3 - 0.2 - - - - - - -
30/08:30am 12.2 - 8 12 1025.6 - 0.2 - - - - - - -
30/08:00am 11.4 - 7 10 1025.8 - 0.2 - - - - - - -
30/07:30am 10.5 - 9 13 1025.7 - 0.2 - - - - - - -
30/07:00am 10.5 - 11 15 1025.4 - 0.0 - - - - - - -
30/06:30am 10.5 - 10 14 1025.3 - 0.0 - - - - - - -
30/06:00am 10.6 - 10 13 1025.1 - 0.0 - - - - - - -
30/05:30am 10.8 - 10 13 1025.1 - 0.0 - - - - - - -
30/05:00am 10.7 - 10 12 1025.2 - 0.0 - - - - - - -
30/04:30am 10.6 - 9 12 1025.3 - 0.0 - - - - - - -
30/04:00am 10.4 - 9 12 1025.5 - 0.0 - - - - - - -
30/03:30am 10.5 - 11 13 1025.8 - 0.0 - - - - - - -
30/03:00am 10.7 - 10 12 1025.9 - 0.0 - - - - - - -
30/02:30am 10.5 - 8 11 1026.4 - 0.0 - - - - - - -
30/02:00am 10.3 - 7 9 1026.7 - 0.0 - - - - - - -
30/01:30am 10.3 - 7 10 1027.1 - 0.0 - - - - - - -
30/01:00am 9.9 - 7 9 1027.2 - 0.0 - - - - - - -
30/12:30am 9.8 - 8 11 1027.1 - 0.0 - - - - - - -
30/12:00am 9.7 - 8 11 1027.4 - 0.0 - - - - - - -
 
Date/Time
EST
Temp

°C
Wind Pressure Rain
since 9am
mm
Weather Cloud Vis
km
Sea
Height
m
Swell
Dir
 
Speed
knots
Gust
knots
hPa Trend Height
m
Period
s
Dir
29/11:30pm 9.7 - 8 10 1027.5 - 0.0 - - - - - - -
29/11:00pm 9.8 - 8 10 1027.8 - 0.0 - - - - - - -
29/10:30pm 9.9 - 7 9 1028.3 - 0.0 - - - - - - -
29/10:00pm 10.0 - 7 9 1028.5 - 0.0 - - - - - - -
29/09:30pm 10.0 - 8 9 1028.4 - 0.0 - - - - - - -
29/09:00pm 10.2 - 8 9 1028.4 - 0.0 - - - - - - -
29/08:30pm 10.5 - 8 11 1028.3 - 0.0 - - - - - - -
29/08:00pm 10.7 - 9 12 1028.3 - 0.0 - - - - - - -
29/07:30pm 10.9 - 10 13 1028.1 - 0.0 - - - - - - -
29/07:00pm 11.0 - 10 12 1028.0 - 0.0 - - - - - - -
29/06:30pm 11.3 - 11 14 1027.9 - 0.0 - - - - - - -
29/06:00pm 11.6 - 10 13 1027.8 - 0.0 - - - - - - -
29/05:30pm 12.1 - 11 16 1027.7 - 0.0 - - - - - - -
29/05:00pm 12.7 - 11 16 1027.5 - 0.0 - - - - - - -
29/04:30pm 13.1 - 11 16 1027.6 - 0.0 - - - - - - -
29/04:00pm 13.3 - 10 15 1027.7 - 0.0 - - - - - - -
29/03:30pm 13.4 - 12 19 1027.5 - 0.0 - - - - - - -
29/03:00pm 13.5 - 10 14 1027.8 - 0.0 - - - - - - -
29/02:30pm 13.6 - 9 13 1027.8 - 0.0 - - - - - - -
29/02:00pm 13.8 - 8 13 1028.0 - 0.0 - - - - - - -
29/01:30pm 13.9 - 8 12 1028.3 - 0.0 - - - - - - -
29/01:00pm 13.7 - 7 12 1028.5 - 0.0 - - - - - - -
29/12:30pm 14.2 - 6 12 1029.1 - 0.0 - - - - - - -
29/12:00pm 14.2 - 6 10 1029.5 - 0.0 - - - - - - -
29/11:30am 14.2 - 7 10 1029.7 - 0.0 - - - - - - -
29/11:00am 13.6 - 6 9 1029.9 - 0.0 - - - - - - -
29/10:30am 13.3 - 6 8 1030.0 - 0.0 - - - - - - -
29/10:00am 12.7 - 5 8 1030.1 - 0.0 - - - - - - -
29/09:30am 12.0 - 5 7 1030.3 - 0.0 - - - - - - -
29/09:00am 11.6 - 4 5 1030.4 - 0.2 - - - - - - -
29/08:30am 10.4 CALM 0 0 1030.2 - 0.2 - - - - - - -
29/08:00am 8.8 CALM 0 0 1029.7 - 0.2 - - - - - - -
29/07:30am 7.6 CALM 0 0 1029.5 - 0.2 - - - - - - -
29/07:00am 7.4 CALM 0 0 1028.9 - 0.2 - - - - - - -
29/06:30am 7.0 CALM 0 0 1028.8 - 0.2 - - - - - - -
29/06:00am 7.4 CALM 0 0 1028.6 - 0.2 - - - - - - -
29/05:30am 7.3 CALM 0 0 1028.6 - 0.2 - - - - - - -
29/05:00am 7.4 - 3 4 1028.5 - 0.2 - - - - - - -
29/04:30am 7.8 - 5 5 1028.3 - 0.2 - - - - - - -
29/04:00am 7.5 - 5 5 1028.1 - 0.0 - - - - - - -
29/03:30am 7.3 - 4 5 1027.9 - 0.0 - - - - - - -
29/03:00am 7.3 - 4 5 1028.3 - 0.0 - - - - - - -
29/02:30am 7.3 - 6 7 1028.4 - 0.0 - - - - - - -
29/02:00am 7.3 CALM 0 0 1028.6 - 0.0 - - - - - - -
29/01:30am 7.3 - 4 4 1028.9 - 0.0 - - - - - - -
29/01:00am 7.6 - 7 7 1028.9 - 0.0 - - - - - - -
29/12:30am 7.8 - 5 6 1028.8 - 0.0 - - - - - - -
29/12:00am 7.8 - 6 7 1029.0 - 0.0 - - - - - - -
 
Date/Time
EST
Temp

°C
Wind Pressure Rain
since 9am
mm
Weather Cloud Vis
km
Sea
Height
m
Swell
Dir
 
Speed
knots
Gust
knots
hPa Trend Height
m
Period
s
Dir
28/11:30pm 8.3 - 7 7 1028.7 - 0.0 - - - - - - -
28/11:00pm 8.4 - 7 7 1028.9 - 0.0 - - - - - - -
28/10:30pm 8.2 - 7 8 1029.1 - 0.0 - - - - - - -
28/10:00pm 8.3 - 7 8 1029.0 - 0.0 - - - - - - -
28/09:30pm 8.2 CALM 0 0 1029.1 - 0.0 - - - - - - -
28/09:00pm 8.0 CALM 0 0 1029.2 - 0.0 - - - - - - -
28/08:30pm 7.9 CALM 0 0 1029.1 - 0.0 - - - - - - -
28/08:00pm 8.3 CALM 0 0 1028.9 - 0.0 - - - - - - -
28/07:30pm 8.5 CALM 0 0 1028.6 - 0.0 - - - - - - -
28/07:00pm 8.6 CALM 0 0 1028.4 - 0.0 - - - - - - -
28/06:30pm 9.6 CALM 0 0 1028.1 - 0.0 - - - - - - -
28/06:00pm 10.9 CALM 0 0 1027.9 - 0.0 - - - - - - -
28/05:30pm 12.5 CALM 0 0 1027.8 - 0.0 - - - - - - -
28/05:00pm 12.8 CALM 0 0 1027.7 - 0.0 - - - - - - -
28/04:30pm 12.9 CALM 0 0 1027.7 - 0.0 - - - - - - -
28/04:00pm 13.3 CALM 0 0 1027.5 - 0.0 - - - - - - -
28/03:30pm 13.9 - 1 4 1027.5 - 0.0 - - - - - - -
28/03:00pm 13.8 - 1 4 1027.8 R 0.0 Fine Mostly clear 20 <0.5 4.0 - SW
28/02:30pm 13.8 - 2 4 1027.6 - 0.0 - - - - - - -
28/02:00pm 14.1 - 2 4 1027.5 - 0.0 - - - - - - -
28/01:30pm 13.8 - 3 4 1027.5 - 0.0 - - - - - - -
28/01:00pm 13.6 - 1 4 1027.8 - 0.0 - - - - - - -
28/12:30pm 13.4 CALM 0 3 1028.3 - 0.0 - - - - - - -
28/12:00pm 14.0 - 1 4 1028.6 - 0.0 - - - - - - -
28/11:30am 13.7 - 1 3 1028.9 - 0.0 - - - - - - -
28/11:00am 12.6 - 3 4 1029.1 - 0.0 - - - - - - -
28/10:30am 12.5 - 3 4 1029.3 - 0.0 - - - - - - -
28/10:00am 12.3 - 2 4 1029.5 - 0.0 - - - - - - -
28/09:30am 12.3 CALM 0 4 1029.4 - 0.0 - - - - - - -
28/09:00am 11.9 CALM 0 0 1029.4 - 0.0 - - - - - - -
28/08:30am 11.3 - 1 4 1029.2 - 0.0 - - - - - - -
28/08:00am 9.0 - 4 5 1029.1 - 0.0 - - - - - - -
28/07:30am 7.3 - 5 6 1029.0 - 0.0 - - - - - - -
28/07:00am 6.8 CALM 0 0 1028.7 - 0.0 - - - - - - -
28/06:30am 6.6 - 3 4 1028.6 - 0.0 - - - - - - -

Other Formats:

Comma delimited format used in spreadsheet applications
http://www.bom.gov.au/fwo/IDT60701/IDT60701.94842.axf

JavaScript Object Notation format (JSON) in row-major order
http://www.bom.gov.au/fwo/IDT60701/IDT60701.94842.json